Time,TemperatureF,DewpointF,PressureIn,WindDirection,WindDirectionDegrees,WindSpeedMPH,WindSpeedGustMPH,Humidity,HourlyPrecipIn,Conditions,Clouds,dailyrainin,SoftwareType,DateUTC
2013-07-08 00:14:00,61.7,61.0,30.28,East,92,0.0,0.0,97,0.00,,,0.26,weatherlink.com 1.10,2013-07-08 04:14:00,
2013-07-08 00:29:00,61.1,60.0,30.28,East,92,0.0,0.0,97,0.00,,,0.26,weatherlink.com 1.10,2013-07-08 04:29:00,
2013-07-08 00:44:00,60.8,60.0,30.28,East,92,0.0,0.0,97,0.00,,,0.00,weatherlink.com 1.10,2013-07-08 04:44:00,
2013-07-08 00:59:00,60.8,60.0,30.28,ENE,78,0.0,0.0,97,0.00,,,0.00,weatherlink.com 1.10,2013-07-08 04:59:00,
2013-07-08 01:14:00,62.2,62.0,30.28,ENE,78,0.0,0.0,98,0.00,,,0.00,weatherlink.com 1.10,2013-07-08 05:14:00,
2013-07-08 01:29:00,62.9,62.0,30.28,ENE,64,0.0,1.0,98,0.00,,,0.00,weatherlink.com 1.10,2013-07-08 05:29:00,
2013-07-08 01:44:00,63.2,63.0,30.28,ESE,106,0.0,3.0,98,0.00,,,0.00,weatherlink.com 1.10,2013-07-08 05:44:00,
2013-07-08 01:59:00,63.3,63.0,30.28,ENE,75,0.0,0.0,98,0.00,,,0.00,weatherlink.com 1.10,2013-07-08 05:59:00,
2013-07-08 02:14:00,63.5,63.0,30.28,ENE,73,0.0,1.0,98,0.00,,,0.00,weatherlink.com 1.10,2013-07-08 06:14:00,
2013-07-08 02:29:00,63.3,63.0,30.28,ENE,73,0.0,1.0,97,0.00,,,0.00,weatherlink.com 1.10,2013-07-08 06:29:00,
2013-07-08 02:44:00,62.7,62.0,30.29,ENE,73,0.0,0.0,97,0.00,,,0.00,weatherlink.com 1.10,2013-07-08 06:44:00,
2013-07-08 02:59:00,62.3,62.0,30.28,ENE,73,0.0,0.0,97,0.00,,,0.00,weatherlink.com 1.10,2013-07-08 06:59:00,
2013-07-08 03:14:00,62.9,62.0,30.28,ENE,61,0.0,0.0,98,0.00,,,0.00,weatherlink.com 1.10,2013-07-08 07:14:00,
2013-07-08 03:29:00,63.5,63.0,30.28,SE,129,1.0,2.0,98,0.00,,,0.00,weatherlink.com 1.10,2013-07-08 07:29:00,
2013-07-08 03:44:00,63.6,63.0,30.28,NE,51,1.0,2.0,98,0.00,,,0.00,weatherlink.com 1.10,2013-07-08 07:44:00,
2013-07-08 03:59:00,63.6,63.0,30.28,NE,39,0.0,1.0,98,0.00,,,0.00,weatherlink.com 1.10,2013-07-08 07:59:00,
2013-07-08 04:14:00,63.5,63.0,30.28,WSW,244,0.0,4.0,98,0.00,,,0.00,weatherlink.com 1.10,2013-07-08 08:14:00,
2013-07-08 04:29:00,63.4,63.0,30.27,NW,309,0.0,4.0,98,0.00,,,0.00,weatherlink.com 1.10,2013-07-08 08:29:00,
2013-07-08 04:44:00,63.4,63.0,30.28,NW,308,0.0,4.0,98,0.00,,,0.00,weatherlink.com 1.10,2013-07-08 08:44:00,
2013-07-08 04:59:00,63.3,63.0,30.28,NNW,329,0.0,5.0,98,0.00,,,0.00,weatherlink.com 1.10,2013-07-08 08:59:00,
2013-07-08 05:14:00,63.3,63.0,30.29,NNW,331,0.0,5.0,98,0.00,,,0.00,weatherlink.com 1.10,2013-07-08 09:14:00,
2013-07-08 05:29:00,63.2,63.0,30.29,NNE,16,0.0,5.0,98,0.00,,,0.00,weatherlink.com 1.10,2013-07-08 09:29:00,
2013-07-08 05:44:00,63.0,63.0,30.30,West,259,0.0,5.0,98,0.00,,,0.00,weatherlink.com 1.10,2013-07-08 09:44:00,
2013-07-08 05:59:00,62.4,62.0,30.30,NNW,346,0.0,2.0,97,0.00,,,0.00,weatherlink.com 1.10,2013-07-08 09:59:00,
2013-07-08 06:14:00,62.1,61.0,30.30,North,355,0.0,1.0,97,0.00,,,0.00,weatherlink.com 1.10,2013-07-08 10:14:00,
2013-07-08 06:29:00,62.2,61.0,30.30,West,279,0.0,1.0,97,0.00,,,0.00,weatherlink.com 1.10,2013-07-08 10:29:00,
2013-07-08 06:44:00,62.4,62.0,30.30,NNW,340,0.0,5.0,97,0.00,,,0.00,weatherlink.com 1.10,2013-07-08 10:44:00,
2013-07-08 06:59:00,62.4,62.0,30.30,WNW,292,0.0,2.0,97,0.00,,,0.00,weatherlink.com 1.10,2013-07-08 10:59:00,
2013-07-08 07:14:00,62.7,62.0,30.30,NW,308,0.0,4.0,97,0.00,,,0.00,weatherlink.com 1.10,2013-07-08 11:14:00,
2013-07-08 07:29:00,62.9,62.0,30.30,WSW,248,1.0,3.0,98,0.00,,,0.00,weatherlink.com 1.10,2013-07-08 11:29:00,
2013-07-08 07:44:00,62.8,62.0,30.31,North,5,0.0,6.0,98,0.00,,,0.00,weatherlink.com 1.10,2013-07-08 11:44:00,
2013-07-08 07:59:00,63.1,62.0,30.32,NNE,28,0.0,4.0,97,0.00,,,0.00,weatherlink.com 1.10,2013-07-08 11:59:00,
2013-07-08 08:14:00,63.1,62.0,30.32,East,85,0.0,3.0,97,0.00,,,0.00,weatherlink.com 1.10,2013-07-08 12:14:00,
2013-07-08 08:29:00,63.5,63.0,30.32,NNW,336,0.0,4.0,97,0.00,,,0.00,weatherlink.com 1.10,2013-07-08 12:29:00,
2013-07-08 08:44:00,63.8,63.0,30.33,NE,34,0.0,2.0,97,0.00,,,0.00,weatherlink.com 1.10,2013-07-08 12:44:00,
2013-07-08 08:59:00,63.9,63.0,30.33,SW,228,0.0,8.0,96,0.00,,,0.00,weatherlink.com 1.10,2013-07-08 12:59:00,
2013-07-08 09:14:00,64.5,63.0,30.33,NNE,16,1.0,3.0,96,0.00,,,0.00,weatherlink.com 1.10,2013-07-08 13:14:00,
2013-07-08 09:29:00,64.8,63.0,30.34,NW,315,0.0,7.0,95,0.00,,,0.00,weatherlink.com 1.10,2013-07-08 13:29:00,
2013-07-08 09:44:00,65.5,64.0,30.34,NNW,338,0.0,2.0,94,0.00,,,0.00,weatherlink.com 1.10,2013-07-08 13:44:00,
2013-07-08 09:59:00,66.4,64.0,30.34,East,87,0.0,6.0,92,0.01,,,0.01,weatherlink.com 1.10,2013-07-08 13:59:00,
2013-07-08 10:15:00,66.7,64.0,30.34,South,190,2.0,5.0,91,0.01,,,0.01,weatherlink.com 1.10,2013-07-08 14:15:00,
2013-07-08 10:30:00,67.7,64.0,30.34,ESE,117,0.0,7.0,89,0.01,,,0.01,weatherlink.com 1.10,2013-07-08 14:30:00,
2013-07-08 10:45:00,68.6,64.0,30.34,North,360,1.0,5.0,86,0.01,,,0.01,weatherlink.com 1.10,2013-07-08 14:45:00,
2013-07-08 11:00:00,69.0,64.0,30.34,ENE,71,0.0,5.0,84,0.00,,,0.01,weatherlink.com 1.10,2013-07-08 15:00:00,
2013-07-08 11:15:00,71.2,65.0,30.35,North,360,4.0,6.0,80,0.00,,,0.01,weatherlink.com 1.10,2013-07-08 15:15:00,
2013-07-08 11:30:00,71.2,65.0,30.35,North,355,0.0,6.0,81,0.00,,,0.01,weatherlink.com 1.10,2013-07-08 15:30:00,
2013-07-08 11:45:00,71.7,64.0,30.35,NNE,24,0.0,4.0,76,0.00,,,0.01,weatherlink.com 1.10,2013-07-08 15:45:00,
2013-07-08 12:00:00,72.0,64.0,30.35,NNW,327,0.0,6.0,76,0.00,,,0.01,weatherlink.com 1.10,2013-07-08 16:00:00,
2013-07-08 12:15:00,72.3,64.0,30.35,SSW,211,0.0,8.0,74,0.00,,,0.01,weatherlink.com 1.10,2013-07-08 16:15:00,
2013-07-08 12:30:00,73.3,63.0,30.35,ENE,74,3.0,7.0,70,0.00,,,0.01,weatherlink.com 1.10,2013-07-08 16:30:00,
2013-07-08 12:45:00,73.3,62.0,30.35,South,178,0.0,5.0,67,0.00,,,0.01,weatherlink.com 1.10,2013-07-08 16:45:00,
2013-07-08 13:00:00,73.5,63.0,30.34,ESE,103,8.0,8.0,70,0.00,,,0.01,weatherlink.com 1.10,2013-07-08 17:00:00,
2013-07-08 13:15:00,73.7,62.0,30.34,WNW,298,6.0,6.0,66,0.00,,,0.01,weatherlink.com 1.10,2013-07-08 17:15:00,
2013-07-08 13:30:00,74.2,64.0,30.34,West,280,0.0,2.0,70,0.00,,,0.01,weatherlink.com 1.10,2013-07-08 17:30:00,
2013-07-08 13:45:00,75.3,63.0,30.33,WSW,250,1.0,4.0,65,0.00,,,0.01,weatherlink.com 1.10,2013-07-08 17:45:00,
2013-07-08 14:00:00,75.0,62.0,30.33,WNW,293,3.0,4.0,65,0.00,,,0.01,weatherlink.com 1.10,2013-07-08 18:00:00,
2013-07-08 14:30:00,73.6,62.0,30.32,WNW,290,0.0,4.0,68,0.00,,,0.01,weatherlink.com 1.10,2013-07-08 18:30:00,
2013-07-08 14:45:00,75.1,62.0,30.31,SW,236,0.0,5.0,65,0.00,,,0.01,weatherlink.com 1.10,2013-07-08 18:45:00,
2013-07-08 15:00:00,74.1,62.0,30.32,East,101,3.0,10.0,67,0.00,,,0.01,weatherlink.com 1.10,2013-07-08 19:00:00,
2013-07-08 15:15:00,75.9,64.0,30.31,ENE,75,0.0,6.0,66,0.00,,,0.01,weatherlink.com 1.10,2013-07-08 19:15:00,
2013-07-08 15:30:00,76.5,65.0,30.31,NW,323,1.0,3.0,68,0.00,,,0.01,weatherlink.com 1.10,2013-07-08 19:30:00,
2013-07-08 16:00:00,77.4,63.0,30.30,East,85,0.0,4.0,62,0.00,,,0.01,weatherlink.com 1.10,2013-07-08 20:00:00,
2013-07-08 16:15:00,76.8,63.0,30.29,WSW,247,0.0,5.0,63,0.00,,,0.01,weatherlink.com 1.10,2013-07-08 20:15:00,
2013-07-08 16:30:00,77.8,65.0,30.28,West,268,0.0,3.0,64,0.00,,,0.01,weatherlink.com 1.10,2013-07-08 20:30:00,
2013-07-08 17:15:00,77.9,62.0,30.28,ESE,111,0.0,5.0,59,0.00,,,0.01,weatherlink.com 1.10,2013-07-08 21:15:00,
2013-07-08 17:30:00,77.4,64.0,30.28,NE,51,0.0,3.0,63,0.00,,,0.01,weatherlink.com 1.10,2013-07-08 21:30:00,
2013-07-08 17:45:00,76.6,61.0,30.27,South,177,5.0,9.0,59,0.00,,,0.01,weatherlink.com 1.10,2013-07-08 21:45:00,
2013-07-08 18:00:00,76.6,62.0,30.27,SE,143,0.0,5.0,61,0.00,,,0.01,weatherlink.com 1.10,2013-07-08 22:00:00,
2013-07-08 18:30:00,76.2,63.0,30.27,NNE,12,0.0,2.0,64,0.00,,,0.01,weatherlink.com 1.10,2013-07-08 22:30:00,
2013-07-08 18:45:00,75.3,63.0,30.27,WNW,287,0.0,3.0,65,0.00,,,0.01,weatherlink.com 1.10,2013-07-08 22:45:00,
2013-07-08 19:30:00,73.3,65.0,30.27,WSW,242,0.0,0.0,76,0.00,,,0.01,weatherlink.com 1.10,2013-07-08 23:30:00,
2013-07-08 20:15:00,70.1,65.0,30.27,WSW,242,0.0,0.0,84,0.00,,,0.01,weatherlink.com 1.10,2013-07-09 00:15:00,
2013-07-08 21:00:00,67.2,64.0,30.28,WSW,242,0.0,0.0,88,0.00,,,0.01,weatherlink.com 1.10,2013-07-09 01:00:00,
2013-07-08 21:15:00,66.2,63.0,30.28,WSW,242,0.0,0.0,89,0.00,,,0.01,weatherlink.com 1.10,2013-07-09 01:15:00,
2013-07-08 22:00:00,64.7,62.0,30.30,WSW,242,0.0,0.0,91,0.00,,,0.01,weatherlink.com 1.10,2013-07-09 02:00:00,
2013-07-08 22:46:00,64.9,63.0,30.31,WSW,242,0.0,0.0,93,0.00,,,0.01,weatherlink.com 1.10,2013-07-09 02:46:00,
2013-07-08 23:01:00,64.9,63.0,30.31,WSW,242,0.0,0.0,93,0.00,,,0.01,weatherlink.com 1.10,2013-07-09 03:01:00,
2013-07-08 23:16:00,65.0,63.0,30.31,WSW,242,0.0,0.0,93,0.00,,,0.01,weatherlink.com 1.10,2013-07-09 03:16:00,
2013-07-08 23:31:00,65.0,63.0,30.30,WSW,242,0.0,0.0,93,0.00,,,0.01,weatherlink.com 1.10,2013-07-09 03:31:00,